sensor_id;sensor_type;location;lat;lon;timestamp;P1;durP1;ratioP1;P2;durP2;ratioP2
49590;SDS011;35496;-21.974;-46.800;2023-07-08T00:01:16;7.03;;;4.03;;
49590;SDS011;35496;-21.974;-46.800;2023-07-08T00:03:42;6.43;;;3.00;;
49590;SDS011;35496;-21.974;-46.800;2023-07-08T00:06:18;2.90;;;2.60;;
49590;SDS011;35496;-21.974;-46.800;2023-07-08T00:08:45;3.47;;;2.38;;
49590;SDS011;35496;-21.974;-46.800;2023-07-08T00:11:11;8.43;;;3.22;;
49590;SDS011;35496;-21.974;-46.800;2023-07-08T00:13:38;6.32;;;2.90;;
49590;SDS011;35496;-21.974;-46.800;2023-07-08T00:16:04;2.53;;;2.33;;
49590;SDS011;35496;-21.974;-46.800;2023-07-08T00:18:34;2.45;;;1.83;;
49590;SDS011;35496;-21.974;-46.800;2023-07-08T00:21:00;3.72;;;2.25;;
49590;SDS011;35496;-21.974;-46.800;2023-07-08T00:23:26;8.05;;;3.30;;
49590;SDS011;35496;-21.974;-46.800;2023-07-08T00:25:52;6.88;;;3.08;;
49590;SDS011;35496;-21.974;-46.800;2023-07-08T00:28:19;3.63;;;2.78;;
49590;SDS011;35496;-21.974;-46.800;2023-07-08T00:30:46;5.88;;;3.75;;
49590;SDS011;35496;-21.974;-46.800;2023-07-08T00:33:13;3.90;;;2.83;;
49590;SDS011;35496;-21.974;-46.800;2023-07-08T00:35:40;5.80;;;3.70;;
49590;SDS011;35496;-21.974;-46.800;2023-07-08T00:38:25;9.73;;;2.80;;
49590;SDS011;35496;-21.974;-46.800;2023-07-08T00:43:39;6.35;;;2.72;;
49590;SDS011;35496;-21.974;-46.800;2023-07-08T00:48:51;5.18;;;2.50;;
49590;SDS011;35496;-21.974;-46.800;2023-07-08T00:51:18;5.60;;;3.38;;
49590;SDS011;35496;-21.974;-46.800;2023-07-08T00:53:45;4.63;;;2.88;;
49590;SDS011;35496;-21.974;-46.800;2023-07-08T00:56:20;9.70;;;4.15;;
49590;SDS011;35496;-21.974;-46.800;2023-07-08T00:58:56;3.50;;;2.97;;
49590;SDS011;35496;-21.974;-46.800;2023-07-08T01:01:23;4.15;;;2.65;;
49590;SDS011;35496;-21.974;-46.800;2023-07-08T01:03:50;4.05;;;2.67;;
49590;SDS011;35496;-21.974;-46.800;2023-07-08T01:06:19;6.15;;;3.38;;
49590;SDS011;35496;-21.974;-46.800;2023-07-08T01:08:48;13.02;;;3.55;;
49590;SDS011;35496;-21.974;-46.800;2023-07-08T01:11:18;10.57;;;3.60;;
49590;SDS011;35496;-21.974;-46.800;2023-07-08T01:13:49;6.40;;;2.70;;
49590;SDS011;35496;-21.974;-46.800;2023-07-08T01:16:16;7.15;;;3.10;;
49590;SDS011;35496;-21.974;-46.800;2023-07-08T01:18:43;7.00;;;2.80;;
49590;SDS011;35496;-21.974;-46.800;2023-07-08T01:21:37;2.65;;;2.17;;
49590;SDS011;35496;-21.974;-46.800;2023-07-08T01:24:05;4.65;;;2.65;;
49590;SDS011;35496;-21.974;-46.800;2023-07-08T01:26:33;4.68;;;2.15;;
49590;SDS011;35496;-21.974;-46.800;2023-07-08T01:29:03;5.35;;;2.60;;
49590;SDS011;35496;-21.974;-46.800;2023-07-08T01:31:33;10.23;;;3.50;;
49590;SDS011;35496;-21.974;-46.800;2023-07-08T01:33:59;7.72;;;3.53;;
49590;SDS011;35496;-21.974;-46.800;2023-07-08T01:36:26;5.88;;;2.83;;
49590;SDS011;35496;-21.974;-46.800;2023-07-08T01:38:55;10.70;;;3.33;;
49590;SDS011;35496;-21.974;-46.800;2023-07-08T01:41:21;4.13;;;2.67;;
49590;SDS011;35496;-21.974;-46.800;2023-07-08T01:43:48;3.78;;;2.42;;
49590;SDS011;35496;-21.974;-46.800;2023-07-08T01:46:17;7.25;;;2.70;;
49590;SDS011;35496;-21.974;-46.800;2023-07-08T01:48:45;5.97;;;2.83;;
49590;SDS011;35496;-21.974;-46.800;2023-07-08T01:51:12;4.30;;;2.65;;
49590;SDS011;35496;-21.974;-46.800;2023-07-08T01:53:39;6.80;;;3.08;;
49590;SDS011;35496;-21.974;-46.800;2023-07-08T01:56:06;7.75;;;2.60;;
49590;SDS011;35496;-21.974;-46.800;2023-07-08T01:58:35;6.40;;;3.13;;
49590;SDS011;35496;-21.974;-46.800;2023-07-08T02:01:02;10.68;;;6.05;;
49590;SDS011;35496;-21.974;-46.800;2023-07-08T02:03:28;8.60;;;5.47;;
49590;SDS011;35496;-21.974;-46.800;2023-07-08T02:05:54;6.75;;;4.43;;
49590;SDS011;35496;-21.974;-46.800;2023-07-08T02:08:21;8.63;;;4.25;;
49590;SDS011;35496;-21.974;-46.800;2023-07-08T02:10:50;7.03;;;3.03;;
49590;SDS011;35496;-21.974;-46.800;2023-07-08T02:13:17;5.55;;;2.97;;
49590;SDS011;35496;-21.974;-46.800;2023-07-08T02:15:43;6.22;;;3.60;;
49590;SDS011;35496;-21.974;-46.800;2023-07-08T02:18:09;5.45;;;2.95;;
49590;SDS011;35496;-21.974;-46.800;2023-07-08T02:20:37;11.73;;;6.13;;
49590;SDS011;35496;-21.974;-46.800;2023-07-08T02:23:03;15.23;;;6.32;;
49590;SDS011;35496;-21.974;-46.800;2023-07-08T02:25:29;4.05;;;2.83;;
49590;SDS011;35496;-21.974;-46.800;2023-07-08T02:27:55;3.15;;;2.83;;
49590;SDS011;35496;-21.974;-46.800;2023-07-08T02:30:23;6.00;;;3.47;;
49590;SDS011;35496;-21.974;-46.800;2023-07-08T02:32:49;5.85;;;3.95;;
49590;SDS011;35496;-21.974;-46.800;2023-07-08T02:35:26;7.57;;;3.60;;
49590;SDS011;35496;-21.974;-46.800;2023-07-08T02:37:53;10.13;;;4.75;;
49590;SDS011;35496;-21.974;-46.800;2023-07-08T02:40:20;14.25;;;6.78;;
49590;SDS011;35496;-21.974;-46.800;2023-07-08T02:42:46;8.35;;;5.85;;
49590;SDS011;35496;-21.974;-46.800;2023-07-08T02:45:12;7.57;;;5.05;;
49590;SDS011;35496;-21.974;-46.800;2023-07-08T02:47:39;9.88;;;5.30;;
49590;SDS011;35496;-21.974;-46.800;2023-07-08T02:50:06;11.02;;;5.50;;
49590;SDS011;35496;-21.974;-46.800;2023-07-08T02:52:33;9.93;;;4.32;;
49590;SDS011;35496;-21.974;-46.800;2023-07-08T02:54:59;8.57;;;5.68;;
49590;SDS011;35496;-21.974;-46.800;2023-07-08T02:57:25;9.07;;;4.43;;
49590;SDS011;35496;-21.974;-46.800;2023-07-08T02:59:51;6.32;;;4.78;;
49590;SDS011;35496;-21.974;-46.800;2023-07-08T03:02:17;6.63;;;3.58;;
49590;SDS011;35496;-21.974;-46.800;2023-07-08T03:04:43;6.05;;;3.67;;
49590;SDS011;35496;-21.974;-46.800;2023-07-08T03:07:10;6.18;;;3.17;;
49590;SDS011;35496;-21.974;-46.800;2023-07-08T03:09:40;6.65;;;3.17;;
49590;SDS011;35496;-21.974;-46.800;2023-07-08T03:12:07;9.50;;;4.15;;
49590;SDS011;35496;-21.974;-46.800;2023-07-08T03:14:33;6.38;;;4.20;;
49590;SDS011;35496;-21.974;-46.800;2023-07-08T03:16:59;6.88;;;3.13;;
49590;SDS011;35496;-21.974;-46.800;2023-07-08T03:19:25;4.88;;;2.78;;
49590;SDS011;35496;-21.974;-46.800;2023-07-08T03:21:51;17.27;;;6.15;;
49590;SDS011;35496;-21.974;-46.800;2023-07-08T03:24:18;10.00;;;6.07;;
49590;SDS011;35496;-21.974;-46.800;2023-07-08T03:26:44;14.60;;;6.78;;
49590;SDS011;35496;-21.974;-46.800;2023-07-08T03:29:16;15.10;;;7.00;;
49590;SDS011;35496;-21.974;-46.800;2023-07-08T03:31:43;11.65;;;6.88;;
49590;SDS011;35496;-21.974;-46.800;2023-07-08T03:34:10;16.17;;;7.20;;
49590;SDS011;35496;-21.974;-46.800;2023-07-08T03:36:39;18.08;;;6.30;;
49590;SDS011;35496;-21.974;-46.800;2023-07-08T03:39:07;9.05;;;6.13;;
49590;SDS011;35496;-21.974;-46.800;2023-07-08T03:41:33;8.05;;;6.18;;
49590;SDS011;35496;-21.974;-46.800;2023-07-08T03:43:59;12.82;;;6.70;;
49590;SDS011;35496;-21.974;-46.800;2023-07-08T03:46:25;11.20;;;6.30;;
49590;SDS011;35496;-21.974;-46.800;2023-07-08T03:48:51;15.93;;;7.55;;
49590;SDS011;35496;-21.974;-46.800;2023-07-08T03:51:21;12.07;;;6.57;;
49590;SDS011;35496;-21.974;-46.800;2023-07-08T03:53:48;11.73;;;5.75;;
49590;SDS011;35496;-21.974;-46.800;2023-07-08T03:56:14;13.98;;;7.53;;
49590;SDS011;35496;-21.974;-46.800;2023-07-08T03:58:40;6.90;;;5.88;;
49590;SDS011;35496;-21.974;-46.800;2023-07-08T04:01:16;15.15;;;7.40;;
49590;SDS011;35496;-21.974;-46.800;2023-07-08T04:03:42;8.95;;;6.18;;
49590;SDS011;35496;-21.974;-46.800;2023-07-08T04:06:09;10.20;;;5.57;;
49590;SDS011;35496;-21.974;-46.800;2023-07-08T04:08:35;11.48;;;5.85;;
49590;SDS011;35496;-21.974;-46.800;2023-07-08T04:11:01;11.52;;;7.65;;
49590;SDS011;35496;-21.974;-46.800;2023-07-08T04:13:27;11.75;;;6.53;;
49590;SDS011;35496;-21.974;-46.800;2023-07-08T04:15:54;9.75;;;5.55;;
49590;SDS011;35496;-21.974;-46.800;2023-07-08T04:18:21;8.45;;;6.07;;
49590;SDS011;35496;-21.974;-46.800;2023-07-08T04:20:47;13.43;;;7.13;;
49590;SDS011;35496;-21.974;-46.800;2023-07-08T04:23:18;13.80;;;7.40;;
49590;SDS011;35496;-21.974;-46.800;2023-07-08T04:25:44;6.88;;;5.30;;
49590;SDS011;35496;-21.974;-46.800;2023-07-08T04:28:10;12.43;;;6.00;;
49590;SDS011;35496;-21.974;-46.800;2023-07-08T04:30:36;9.27;;;4.85;;
49590;SDS011;35496;-21.974;-46.800;2023-07-08T04:33:16;7.45;;;6.13;;
49590;SDS011;35496;-21.974;-46.800;2023-07-08T04:35:43;14.80;;;4.82;;
49590;SDS011;35496;-21.974;-46.800;2023-07-08T04:38:16;8.10;;;6.30;;
49590;SDS011;35496;-21.974;-46.800;2023-07-08T04:40:43;11.45;;;4.97;;
49590;SDS011;35496;-21.974;-46.800;2023-07-08T04:43:09;5.78;;;2.65;;
49590;SDS011;35496;-21.974;-46.800;2023-07-08T04:45:42;8.38;;;5.20;;
49590;SDS011;35496;-21.974;-46.800;2023-07-08T04:48:16;13.02;;;3.40;;
49590;SDS011;35496;-21.974;-46.800;2023-07-08T04:50:43;5.65;;;3.22;;
49590;SDS011;35496;-21.974;-46.800;2023-07-08T04:53:09;6.68;;;3.22;;
49590;SDS011;35496;-21.974;-46.800;2023-07-08T04:55:39;6.57;;;3.42;;
49590;SDS011;35496;-21.974;-46.800;2023-07-08T04:58:06;4.05;;;3.20;;
49590;SDS011;35496;-21.974;-46.800;2023-07-08T05:00:32;6.45;;;3.42;;
49590;SDS011;35496;-21.974;-46.800;2023-07-08T05:02:58;7.07;;;3.50;;
49590;SDS011;35496;-21.974;-46.800;2023-07-08T05:05:24;11.55;;;4.00;;
49590;SDS011;35496;-21.974;-46.800;2023-07-08T05:07:50;5.70;;;3.33;;
49590;SDS011;35496;-21.974;-46.800;2023-07-08T05:10:17;7.28;;;3.35;;
49590;SDS011;35496;-21.974;-46.800;2023-07-08T05:12:43;6.70;;;3.35;;
49590;SDS011;35496;-21.974;-46.800;2023-07-08T05:15:10;3.58;;;2.78;;
49590;SDS011;35496;-21.974;-46.800;2023-07-08T05:17:37;5.78;;;2.88;;
49590;SDS011;35496;-21.974;-46.800;2023-07-08T05:20:03;4.47;;;2.97;;
49590;SDS011;35496;-21.974;-46.800;2023-07-08T05:22:30;8.75;;;5.25;;
49590;SDS011;35496;-21.974;-46.800;2023-07-08T05:24:56;7.60;;;6.35;;
49590;SDS011;35496;-21.974;-46.800;2023-07-08T05:27:22;12.98;;;7.18;;
49590;SDS011;35496;-21.974;-46.800;2023-07-08T05:29:48;9.70;;;6.85;;
49590;SDS011;35496;-21.974;-46.800;2023-07-08T05:32:15;16.15;;;7.90;;
49590;SDS011;35496;-21.974;-46.800;2023-07-08T05:34:41;16.73;;;7.68;;
49590;SDS011;35496;-21.974;-46.800;2023-07-08T05:37:07;19.30;;;7.05;;
49590;SDS011;35496;-21.974;-46.800;2023-07-08T05:39:33;16.95;;;8.68;;
49590;SDS011;35496;-21.974;-46.800;2023-07-08T05:42:02;17.13;;;10.23;;
49590;SDS011;35496;-21.974;-46.800;2023-07-08T05:44:28;16.48;;;9.32;;
49590;SDS011;35496;-21.974;-46.800;2023-07-08T05:46:54;20.02;;;10.45;;
49590;SDS011;35496;-21.974;-46.800;2023-07-08T05:49:20;21.60;;;10.93;;
49590;SDS011;35496;-21.974;-46.800;2023-07-08T05:51:47;14.00;;;9.57;;
49590;SDS011;35496;-21.974;-46.800;2023-07-08T05:54:13;15.52;;;10.10;;
49590;SDS011;35496;-21.974;-46.800;2023-07-08T05:56:39;14.95;;;10.50;;
49590;SDS011;35496;-21.974;-46.800;2023-07-08T05:59:06;16.05;;;10.70;;
49590;SDS011;35496;-21.974;-46.800;2023-07-08T06:01:32;15.23;;;10.27;;
49590;SDS011;35496;-21.974;-46.800;2023-07-08T06:03:58;25.77;;;11.20;;
49590;SDS011;35496;-21.974;-46.800;2023-07-08T06:06:25;20.27;;;11.15;;
49590;SDS011;35496;-21.974;-46.800;2023-07-08T06:08:51;16.38;;;10.80;;
49590;SDS011;35496;-21.974;-46.800;2023-07-08T06:11:17;23.98;;;10.70;;
49590;SDS011;35496;-21.974;-46.800;2023-07-08T06:13:43;15.40;;;10.38;;
49590;SDS011;35496;-21.974;-46.800;2023-07-08T06:16:09;19.95;;;10.77;;
49590;SDS011;35496;-21.974;-46.800;2023-07-08T06:18:35;15.65;;;10.20;;
49590;SDS011;35496;-21.974;-46.800;2023-07-08T06:21:02;21.35;;;13.05;;
49590;SDS011;35496;-21.974;-46.800;2023-07-08T06:23:28;23.88;;;9.77;;
49590;SDS011;35496;-21.974;-46.800;2023-07-08T06:25:54;15.68;;;9.98;;
49590;SDS011;35496;-21.974;-46.800;2023-07-08T06:28:21;13.95;;;9.55;;
49590;SDS011;35496;-21.974;-46.800;2023-07-08T06:30:47;11.30;;;8.10;;
49590;SDS011;35496;-21.974;-46.800;2023-07-08T06:33:13;17.30;;;10.35;;
49590;SDS011;35496;-21.974;-46.800;2023-07-08T06:35:39;16.88;;;9.68;;
49590;SDS011;35496;-21.974;-46.800;2023-07-08T06:38:05;14.68;;;10.45;;
49590;SDS011;35496;-21.974;-46.800;2023-07-08T06:40:32;17.20;;;10.25;;
49590;SDS011;35496;-21.974;-46.800;2023-07-08T06:42:58;16.35;;;10.65;;
49590;SDS011;35496;-21.974;-46.800;2023-07-08T06:45:24;18.67;;;12.38;;
49590;SDS011;35496;-21.974;-46.800;2023-07-08T06:47:50;23.42;;;12.95;;
49590;SDS011;35496;-21.974;-46.800;2023-07-08T06:50:16;17.05;;;12.80;;
49590;SDS011;35496;-21.974;-46.800;2023-07-08T06:52:42;27.75;;;13.63;;
49590;SDS011;35496;-21.974;-46.800;2023-07-08T06:55:09;27.40;;;13.48;;
49590;SDS011;35496;-21.974;-46.800;2023-07-08T06:57:36;19.45;;;13.52;;
49590;SDS011;35496;-21.974;-46.800;2023-07-08T07:00:06;20.90;;;14.55;;
49590;SDS011;35496;-21.974;-46.800;2023-07-08T07:02:32;24.85;;;14.45;;
49590;SDS011;35496;-21.974;-46.800;2023-07-08T07:04:59;26.27;;;15.52;;
49590;SDS011;35496;-21.974;-46.800;2023-07-08T07:07:25;24.23;;;15.02;;
49590;SDS011;35496;-21.974;-46.800;2023-07-08T07:09:51;20.52;;;13.05;;
49590;SDS011;35496;-21.974;-46.800;2023-07-08T07:12:17;24.98;;;15.13;;
49590;SDS011;35496;-21.974;-46.800;2023-07-08T07:14:43;19.25;;;12.38;;
49590;SDS011;35496;-21.974;-46.800;2023-07-08T07:17:10;18.88;;;13.40;;
49590;SDS011;35496;-21.974;-46.800;2023-07-08T07:19:36;19.65;;;12.73;;
49590;SDS011;35496;-21.974;-46.800;2023-07-08T07:22:02;21.58;;;12.38;;
49590;SDS011;35496;-21.974;-46.800;2023-07-08T07:24:28;24.30;;;13.95;;
49590;SDS011;35496;-21.974;-46.800;2023-07-08T07:26:54;31.30;;;13.63;;
49590;SDS011;35496;-21.974;-46.800;2023-07-08T07:29:22;25.98;;;13.73;;
49590;SDS011;35496;-21.974;-46.800;2023-07-08T07:31:48;21.38;;;12.73;;
49590;SDS011;35496;-21.974;-46.800;2023-07-08T07:34:14;19.30;;;12.07;;
49590;SDS011;35496;-21.974;-46.800;2023-07-08T07:36:40;17.88;;;10.50;;
49590;SDS011;35496;-21.974;-46.800;2023-07-08T07:39:06;16.80;;;11.40;;
49590;SDS011;35496;-21.974;-46.800;2023-07-08T07:41:32;14.98;;;10.55;;
49590;SDS011;35496;-21.974;-46.800;2023-07-08T07:43:58;16.88;;;10.60;;
49590;SDS011;35496;-21.974;-46.800;2023-07-08T07:46:24;13.77;;;8.27;;
49590;SDS011;35496;-21.974;-46.800;2023-07-08T07:48:50;16.67;;;8.27;;
49590;SDS011;35496;-21.974;-46.800;2023-07-08T07:51:17;15.75;;;9.73;;
49590;SDS011;35496;-21.974;-46.800;2023-07-08T07:53:43;18.45;;;12.90;;
49590;SDS011;35496;-21.974;-46.800;2023-07-08T07:56:09;18.77;;;11.02;;
49590;SDS011;35496;-21.974;-46.800;2023-07-08T07:58:35;14.68;;;10.77;;
49590;SDS011;35496;-21.974;-46.800;2023-07-08T08:01:01;16.08;;;12.65;;
49590;SDS011;35496;-21.974;-46.800;2023-07-08T08:03:27;23.88;;;11.35;;
49590;SDS011;35496;-21.974;-46.800;2023-07-08T08:05:53;20.25;;;9.48;;
49590;SDS011;35496;-21.974;-46.800;2023-07-08T08:08:19;24.75;;;11.88;;
49590;SDS011;35496;-21.974;-46.800;2023-07-08T08:10:47;14.55;;;10.30;;
49590;SDS011;35496;-21.974;-46.800;2023-07-08T08:13:14;15.25;;;10.45;;
49590;SDS011;35496;-21.974;-46.800;2023-07-08T08:15:40;16.70;;;9.52;;
49590;SDS011;35496;-21.974;-46.800;2023-07-08T08:18:06;13.30;;;9.38;;
49590;SDS011;35496;-21.974;-46.800;2023-07-08T08:20:32;13.43;;;8.40;;
49590;SDS011;35496;-21.974;-46.800;2023-07-08T08:22:59;12.45;;;8.95;;
49590;SDS011;35496;-21.974;-46.800;2023-07-08T08:25:25;12.82;;;8.90;;
49590;SDS011;35496;-21.974;-46.800;2023-07-08T08:27:51;14.52;;;9.30;;
49590;SDS011;35496;-21.974;-46.800;2023-07-08T08:30:18;13.35;;;8.77;;
49590;SDS011;35496;-21.974;-46.800;2023-07-08T08:32:44;14.63;;;7.55;;
49590;SDS011;35496;-21.974;-46.800;2023-07-08T08:35:10;17.65;;;9.10;;
49590;SDS011;35496;-21.974;-46.800;2023-07-08T08:37:36;15.27;;;10.02;;
49590;SDS011;35496;-21.974;-46.800;2023-07-08T08:40:02;11.63;;;7.47;;
49590;SDS011;35496;-21.974;-46.800;2023-07-08T08:42:30;15.98;;;7.97;;
49590;SDS011;35496;-21.974;-46.800;2023-07-08T08:44:58;14.82;;;9.20;;
49590;SDS011;35496;-21.974;-46.800;2023-07-08T08:47:39;12.02;;;8.57;;
49590;SDS011;35496;-21.974;-46.800;2023-07-08T08:50:18;6.90;;;4.35;;
49590;SDS011;35496;-21.974;-46.800;2023-07-08T08:52:45;11.75;;;6.20;;
49590;SDS011;35496;-21.974;-46.800;2023-07-08T08:55:12;10.05;;;5.47;;
49590;SDS011;35496;-21.974;-46.800;2023-07-08T08:57:47;10.43;;;7.78;;
49590;SDS011;35496;-21.974;-46.800;2023-07-08T09:00:19;6.68;;;4.50;;
49590;SDS011;35496;-21.974;-46.800;2023-07-08T09:05:24;15.95;;;9.65;;
49590;SDS011;35496;-21.974;-46.800;2023-07-08T09:10:39;17.75;;;11.13;;
49590;SDS011;35496;-21.974;-46.800;2023-07-08T09:13:10;19.15;;;11.02;;
49590;SDS011;35496;-21.974;-46.800;2023-07-08T09:15:37;13.80;;;8.77;;
49590;SDS011;35496;-21.974;-46.800;2023-07-08T09:18:10;15.93;;;9.57;;
49590;SDS011;35496;-21.974;-46.800;2023-07-08T09:20:38;17.67;;;9.70;;
49590;SDS011;35496;-21.974;-46.800;2023-07-08T09:25:43;15.50;;;8.60;;
49590;SDS011;35496;-21.974;-46.800;2023-07-08T09:28:13;11.88;;;6.85;;
49590;SDS011;35496;-21.974;-46.800;2023-07-08T09:30:39;6.38;;;3.22;;
49590;SDS011;35496;-21.974;-46.800;2023-07-08T09:33:07;3.25;;;2.63;;
49590;SDS011;35496;-21.974;-46.800;2023-07-08T09:35:40;4.25;;;2.60;;
49590;SDS011;35496;-21.974;-46.800;2023-07-08T09:38:08;5.50;;;2.50;;
49590;SDS011;35496;-21.974;-46.800;2023-07-08T09:40:34;3.60;;;2.80;;
49590;SDS011;35496;-21.974;-46.800;2023-07-08T09:43:03;4.97;;;2.97;;
49590;SDS011;35496;-21.974;-46.800;2023-07-08T09:45:29;4.22;;;3.08;;
49590;SDS011;35496;-21.974;-46.800;2023-07-08T09:48:13;5.47;;;2.88;;
49590;SDS011;35496;-21.974;-46.800;2023-07-08T09:50:42;4.18;;;2.67;;
49590;SDS011;35496;-21.974;-46.800;2023-07-08T09:53:12;3.75;;;2.22;;
49590;SDS011;35496;-21.974;-46.800;2023-07-08T09:55:39;7.35;;;2.58;;
49590;SDS011;35496;-21.974;-46.800;2023-07-08T09:58:05;10.20;;;2.97;;
49590;SDS011;35496;-21.974;-46.800;2023-07-08T10:00:42;4.60;;;2.70;;
49590;SDS011;35496;-21.974;-46.800;2023-07-08T10:03:23;5.00;;;2.55;;
49590;SDS011;35496;-21.974;-46.800;2023-07-08T10:05:51;7.28;;;3.13;;
49590;SDS011;35496;-21.974;-46.800;2023-07-08T10:08:21;10.07;;;2.80;;
49590;SDS011;35496;-21.974;-46.800;2023-07-08T10:10:49;4.95;;;2.13;;
49590;SDS011;35496;-21.974;-46.800;2023-07-08T10:13:24;4.15;;;3.63;;
49590;SDS011;35496;-21.974;-46.800;2023-07-08T10:18:20;8.50;;;3.22;;
49590;SDS011;35496;-21.974;-46.800;2023-07-08T10:20:52;8.40;;;4.13;;
49590;SDS011;35496;-21.974;-46.800;2023-07-08T10:26:53;8.18;;;3.28;;
49590;SDS011;35496;-21.974;-46.800;2023-07-08T10:28:50;11.23;;;3.13;;
49590;SDS011;35496;-21.974;-46.800;2023-07-08T10:31:26;12.35;;;5.97;;
49590;SDS011;35496;-21.974;-46.800;2023-07-08T10:52:18;8.82;;;6.38;;
49590;SDS011;35496;-21.974;-46.800;2023-07-08T11:02:25;4.97;;;2.72;;
49590;SDS011;35496;-21.974;-46.800;2023-07-08T11:04:58;4.32;;;3.08;;
49590;SDS011;35496;-21.974;-46.800;2023-07-08T11:07:41;4.03;;;2.72;;
49590;SDS011;35496;-21.974;-46.800;2023-07-08T11:10:20;5.60;;;2.95;;
49590;SDS011;35496;-21.974;-46.800;2023-07-08T11:12:53;7.10;;;2.60;;
49590;SDS011;35496;-21.974;-46.800;2023-07-08T11:15:23;3.17;;;2.88;;
49590;SDS011;35496;-21.974;-46.800;2023-07-08T11:20:24;4.60;;;2.78;;
49590;SDS011;35496;-21.974;-46.800;2023-07-08T11:22:53;6.32;;;3.25;;
49590;SDS011;35496;-21.974;-46.800;2023-07-08T11:25:21;5.28;;;3.33;;
49590;SDS011;35496;-21.974;-46.800;2023-07-08T11:27:50;6.15;;;3.45;;
49590;SDS011;35496;-21.974;-46.800;2023-07-08T11:30:21;5.80;;;3.22;;
49590;SDS011;35496;-21.974;-46.800;2023-07-08T11:32:59;7.32;;;3.45;;
49590;SDS011;35496;-21.974;-46.800;2023-07-08T11:35:33;5.47;;;3.13;;
49590;SDS011;35496;-21.974;-46.800;2023-07-08T11:38:01;9.57;;;3.13;;
49590;SDS011;35496;-21.974;-46.800;2023-07-08T11:40:28;12.02;;;3.55;;
49590;SDS011;35496;-21.974;-46.800;2023-07-08T11:43:00;3.85;;;3.42;;
49590;SDS011;35496;-21.974;-46.800;2023-07-08T11:45:33;7.47;;;3.53;;
49590;SDS011;35496;-21.974;-46.800;2023-07-08T11:48:12;5.85;;;2.92;;
49590;SDS011;35496;-21.974;-46.800;2023-07-08T11:50:42;9.07;;;3.10;;
49590;SDS011;35496;-21.974;-46.800;2023-07-08T11:53:12;16.90;;;3.95;;
49590;SDS011;35496;-21.974;-46.800;2023-07-08T11:55:58;10.88;;;6.93;;
49590;SDS011;35496;-21.974;-46.800;2023-07-08T11:58:26;7.75;;;3.83;;
49590;SDS011;35496;-21.974;-46.800;2023-07-08T12:03:53;5.03;;;3.17;;
49590;SDS011;35496;-21.974;-46.800;2023-07-08T12:08:59;7.30;;;2.75;;
49590;SDS011;35496;-21.974;-46.800;2023-07-08T12:11:31;7.53;;;2.75;;
49590;SDS011;35496;-21.974;-46.800;2023-07-08T12:14:01;6.07;;;2.20;;
49590;SDS011;35496;-21.974;-46.800;2023-07-08T12:16:28;2.97;;;2.08;;
49590;SDS011;35496;-21.974;-46.800;2023-07-08T12:18:55;4.93;;;1.90;;
49590;SDS011;35496;-21.974;-46.800;2023-07-08T12:21:23;2.00;;;1.75;;
49590;SDS011;35496;-21.974;-46.800;2023-07-08T12:23:49;4.95;;;2.47;;
49590;SDS011;35496;-21.974;-46.800;2023-07-08T12:26:15;1.90;;;1.77;;
49590;SDS011;35496;-21.974;-46.800;2023-07-08T12:28:42;5.35;;;2.55;;
49590;SDS011;35496;-21.974;-46.800;2023-07-08T12:31:18;6.85;;;2.35;;
49590;SDS011;35496;-21.974;-46.800;2023-07-08T12:33:44;3.53;;;2.08;;
49590;SDS011;35496;-21.974;-46.800;2023-07-08T12:36:11;6.93;;;2.95;;
49590;SDS011;35496;-21.974;-46.800;2023-07-08T12:38:40;6.00;;;2.97;;
49590;SDS011;35496;-21.974;-46.800;2023-07-08T12:41:26;4.72;;;2.90;;
49590;SDS011;35496;-21.974;-46.800;2023-07-08T12:43:53;3.47;;;2.92;;
49590;SDS011;35496;-21.974;-46.800;2023-07-08T12:46:20;5.80;;;2.33;;
49590;SDS011;35496;-21.974;-46.800;2023-07-08T12:48:47;8.23;;;1.83;;
49590;SDS011;35496;-21.974;-46.800;2023-07-08T12:51:14;3.67;;;2.15;;
49590;SDS011;35496;-21.974;-46.800;2023-07-08T12:53:41;8.15;;;2.83;;
49590;SDS011;35496;-21.974;-46.800;2023-07-08T12:56:07;5.68;;;2.25;;
49590;SDS011;35496;-21.974;-46.800;2023-07-08T12:58:34;2.65;;;2.25;;
49590;SDS011;35496;-21.974;-46.800;2023-07-08T13:01:02;3.13;;;2.22;;
49590;SDS011;35496;-21.974;-46.800;2023-07-08T13:03:31;3.83;;;2.30;;
49590;SDS011;35496;-21.974;-46.800;2023-07-08T13:05:59;3.70;;;2.40;;
49590;SDS011;35496;-21.974;-46.800;2023-07-08T13:08:27;5.32;;;2.55;;
49590;SDS011;35496;-21.974;-46.800;2023-07-08T13:10:55;7.35;;;3.63;;
49590;SDS011;35496;-21.974;-46.800;2023-07-08T13:13:30;4.53;;;3.00;;
49590;SDS011;35496;-21.974;-46.800;2023-07-08T13:15:57;2.08;;;1.85;;
49590;SDS011;35496;-21.974;-46.800;2023-07-08T13:18:28;4.40;;;2.35;;
49590;SDS011;35496;-21.974;-46.800;2023-07-08T13:20:55;3.80;;;2.15;;
49590;SDS011;35496;-21.974;-46.800;2023-07-08T13:23:22;2.88;;;1.83;;
49590;SDS011;35496;-21.974;-46.800;2023-07-08T13:25:51;4.55;;;1.73;;
49590;SDS011;35496;-21.974;-46.800;2023-07-08T13:28:19;3.58;;;2.50;;
49590;SDS011;35496;-21.974;-46.800;2023-07-08T13:30:50;3.88;;;2.08;;
49590;SDS011;35496;-21.974;-46.800;2023-07-08T13:33:18;5.15;;;1.92;;
49590;SDS011;35496;-21.974;-46.800;2023-07-08T13:35:47;3.15;;;1.55;;
49590;SDS011;35496;-21.974;-46.800;2023-07-08T13:38:31;5.15;;;1.83;;
49590;SDS011;35496;-21.974;-46.800;2023-07-08T13:40:58;4.38;;;1.80;;
49590;SDS011;35496;-21.974;-46.800;2023-07-08T13:43:25;1.98;;;1.88;;
49590;SDS011;35496;-21.974;-46.800;2023-07-08T13:45:51;4.20;;;2.45;;
49590;SDS011;35496;-21.974;-46.800;2023-07-08T13:48:24;4.40;;;2.13;;
49590;SDS011;35496;-21.974;-46.800;2023-07-08T13:50:57;4.10;;;2.15;;
49590;SDS011;35496;-21.974;-46.800;2023-07-08T13:53:25;2.65;;;1.40;;
49590;SDS011;35496;-21.974;-46.800;2023-07-08T13:55:59;4.90;;;2.22;;
49590;SDS011;35496;-21.974;-46.800;2023-07-08T13:58:26;3.00;;;1.65;;
49590;SDS011;35496;-21.974;-46.800;2023-07-08T14:00:52;3.63;;;1.67;;
49590;SDS011;35496;-21.974;-46.800;2023-07-08T14:03:18;2.35;;;1.98;;
49590;SDS011;35496;-21.974;-46.800;2023-07-08T14:05:45;1.67;;;1.58;;
49590;SDS011;35496;-21.974;-46.800;2023-07-08T14:08:15;6.40;;;1.83;;
49590;SDS011;35496;-21.974;-46.800;2023-07-08T14:10:43;5.05;;;1.42;;
49590;SDS011;35496;-21.974;-46.800;2023-07-08T14:13:10;4.30;;;1.33;;
49590;SDS011;35496;-21.974;-46.800;2023-07-08T14:15:37;1.27;;;1.17;;
49590;SDS011;35496;-21.974;-46.800;2023-07-08T14:18:03;3.22;;;1.60;;
49590;SDS011;35496;-21.974;-46.800;2023-07-08T14:20:29;2.40;;;1.42;;
49590;SDS011;35496;-21.974;-46.800;2023-07-08T14:22:56;1.40;;;1.30;;
49590;SDS011;35496;-21.974;-46.800;2023-07-08T14:25:24;3.78;;;2.13;;
49590;SDS011;35496;-21.974;-46.800;2023-07-08T14:27:50;4.03;;;2.08;;
49590;SDS011;35496;-21.974;-46.800;2023-07-08T14:30:17;6.22;;;1.60;;
49590;SDS011;35496;-21.974;-46.800;2023-07-08T14:32:43;2.95;;;1.38;;
49590;SDS011;35496;-21.974;-46.800;2023-07-08T14:35:15;1.88;;;1.77;;
49590;SDS011;35496;-21.974;-46.800;2023-07-08T14:37:42;3.15;;;1.80;;
49590;SDS011;35496;-21.974;-46.800;2023-07-08T14:40:25;1.92;;;1.52;;
49590;SDS011;35496;-21.974;-46.800;2023-07-08T14:42:56;1.92;;;1.55;;
49590;SDS011;35496;-21.974;-46.800;2023-07-08T14:45:24;3.88;;;1.85;;
49590;SDS011;35496;-21.974;-46.800;2023-07-08T14:47:50;2.70;;;1.50;;
49590;SDS011;35496;-21.974;-46.800;2023-07-08T14:50:17;2.25;;;1.67;;
49590;SDS011;35496;-21.974;-46.800;2023-07-08T14:52:43;4.95;;;2.75;;
49590;SDS011;35496;-21.974;-46.800;2023-07-08T14:55:10;3.38;;;2.25;;
49590;SDS011;35496;-21.974;-46.800;2023-07-08T14:57:43;1.98;;;1.83;;
49590;SDS011;35496;-21.974;-46.800;2023-07-08T15:00:14;2.53;;;1.35;;